Time;durP1;ratioP1;P1;durP2;ratioP2;P2;SDS_P1;SDS_P2;PMS_P1;PMS_P2;Temp;Humidity;BMP_temperature;BMP_pressure;BME280_temperature;BME280_humidity;BME280_pressure;Samples;Min_cycle;Max_cycle;Signal;HPM_P1;HPM_P2
2024/01/18 00:02:18;;;;;;;30.00;18.20;;;;;;;-4.29;75.27;98442.42;106767;1265;137276;-39
2024/01/18 00:04:46;;;;;;;29.20;18.30;;;;;;;-4.29;76.03;98424.06;106895;1262;60048;-38
2024/01/18 00:07:14;;;;;;;29.10;17.90;;;;;;;-4.29;76.00;98430.30;106827;1264;71920;-39
2024/01/18 00:09:42;;;;;;;29.50;18.00;;;;;;;-4.28;76.33;98417.16;106821;1264;66451;-39
2024/01/18 00:12:10;;;;;;;28.10;17.20;;;;;;;-4.18;76.72;98423.22;106861;1267;71034;-39
2024/01/18 00:14:38;;;;;;;30.10;17.70;;;;;;;-4.14;76.95;98412.58;106865;1262;59710;-39
2024/01/18 00:17:05;;;;;;;31.90;18.00;;;;;;;-4.13;77.40;98405.31;106844;1262;59590;-39
2024/01/18 00:19:33;;;;;;;30.30;16.50;;;;;;;-4.10;77.46;98396.64;106837;1262;73074;-39
2024/01/18 00:22:02;;;;;;;26.70;16.70;;;;;;;-4.00;77.44;98383.31;106819;1264;68539;-39
2024/01/18 00:24:30;;;;;;;33.00;17.60;;;;;;;-3.92;77.57;98372.77;106824;1266;72622;-39
2024/01/18 00:26:57;;;;;;;29.40;17.00;;;;;;;-3.90;77.66;98377.02;106854;1264;59247;-38
2024/01/18 00:29:25;;;;;;;31.90;18.10;;;;;;;-3.91;77.52;98361.30;106850;1269;59519;-39
2024/01/18 00:31:53;;;;;;;28.30;16.90;;;;;;;-3.89;77.68;98347.29;106812;1264;73028;-39
2024/01/18 00:34:21;;;;;;;29.50;16.70;;;;;;;-3.83;77.56;98338.77;106812;1263;67087;-39
2024/01/18 00:36:49;;;;;;;26.10;16.10;;;;;;;-3.82;77.71;98330.08;106139;1264;1003008;-38
2024/01/18 00:39:19;;;;;;;32.60;17.80;;;;;;;-3.85;77.77;98318.27;106832;1268;59730;-39
2024/01/18 00:41:47;;;;;;;30.40;17.90;;;;;;;-3.88;78.18;98316.27;106811;1264;60099;-39
2024/01/18 00:44:15;;;;;;;27.00;16.70;;;;;;;-3.85;78.23;98313.52;106836;1264;71886;-39
2024/01/18 00:46:42;;;;;;;27.00;16.10;;;;;;;-3.81;78.38;98307.44;106868;1263;67667;-39
2024/01/18 00:49:10;;;;;;;31.00;18.30;;;;;;;-3.81;78.61;98303.58;106828;1268;72482;-39
2024/01/18 00:51:37;;;;;;;32.50;17.80;;;;;;;-3.88;78.83;98291.80;106859;1264;59602;-38
2024/01/18 00:54:05;;;;;;;27.80;15.90;;;;;;;-3.78;78.95;98300.52;106861;1269;59299;-38
2024/01/18 00:56:33;;;;;;;29.80;16.50;;;;;;;-3.72;78.90;98273.06;106838;1263;72997;-38
2024/01/18 00:59:00;;;;;;;27.00;16.00;;;;;;;-3.68;79.54;98260.92;106824;1263;67097;-38
2024/01/18 01:01:28;;;;;;;28.70;16.50;;;;;;;-3.69;79.57;98247.34;106838;1268;71687;-38
2024/01/18 01:03:55;;;;;;;28.00;16.40;;;;;;;-3.72;80.03;98237.48;106834;1262;59519;-38
2024/01/18 01:06:23;;;;;;;26.90;16.40;;;;;;;-3.66;80.17;98221.05;106815;1264;58840;-39
2024/01/18 01:08:51;;;;;;;29.00;16.30;;;;;;;-3.58;79.93;98207.28;106862;1264;71774;-38
2024/01/18 01:11:18;;;;;;;29.40;16.50;;;;;;;-3.60;79.84;98203.88;106853;1262;67525;-38
2024/01/18 01:13:47;;;;;;;28.30;17.70;;;;;;;-3.63;80.09;98191.16;106107;1264;1003125;-38
2024/01/18 01:16:14;;;;;;;27.90;16.90;;;;;;;-3.63;80.02;98189.75;106809;1264;60895;-38
2024/01/18 01:18:42;;;;;;;30.00;16.50;;;;;;;-3.56;79.88;98183.45;106838;1264;59992;-38
2024/01/18 01:21:10;;;;;;;30.20;17.40;;;;;;;-3.55;79.85;98182.11;106792;1264;73017;-39
2024/01/18 01:23:41;;;;;;;28.90;17.20;;;;;;;-3.59;81.11;98163.13;106744;1264;68022;-39
2024/01/18 01:26:09;;;;;;;24.80;15.20;;;;;;;-3.59;81.83;98168.89;106746;1264;72506;-38
2024/01/18 01:28:37;;;;;;;24.70;16.10;;;;;;;-3.50;82.09;98161.59;106784;1264;59597;-38
2024/01/18 01:31:04;;;;;;;27.70;15.90;;;;;;;-3.45;82.00;98167.65;106812;1263;59529;-38
2024/01/18 01:33:32;;;;;;;28.90;16.90;;;;;;;-3.47;81.97;98155.45;106788;1264;73029;-38
2024/01/18 01:35:59;;;;;;;29.50;17.10;;;;;;;-3.48;81.90;98147.83;106805;1264;68515;-38
2024/01/18 01:38:27;;;;;;;27.70;15.80;;;;;;;-3.44;81.73;98146.59;106815;1264;72404;-38
2024/01/18 01:40:54;;;;;;;27.70;17.00;;;;;;;-3.37;81.82;98142.52;106827;1265;59619;-38
2024/01/18 01:43:23;;;;;;;29.20;18.00;;;;;;;-3.36;81.98;98134.45;106824;1264;60069;-38
2024/01/18 01:45:51;;;;;;;25.50;16.20;;;;;;;-3.41;82.02;98128.09;106795;1262;71884;-38
2024/01/18 01:48:19;;;;;;;25.10;16.10;;;;;;;-3.33;81.77;98125.27;106844;1264;67929;-38
2024/01/18 01:50:47;;;;;;;25.40;15.90;;;;;;;-3.25;81.37;98121.05;106649;1264;72648;-38
2024/01/18 01:53:15;;;;;;;27.40;16.90;;;;;;;-3.25;81.53;98114.48;106839;1264;59726;-38
2024/01/18 01:55:42;;;;;;;29.50;17.30;;;;;;;-3.27;81.49;98103.55;106029;1264;1003694;-38
2024/01/18 01:58:10;;;;;;;25.20;14.80;;;;;;;-3.26;81.85;98093.52;106839;1263;73034;-38
2024/01/18 02:00:38;;;;;;;25.90;15.60;;;;;;;-3.17;81.67;98085.83;106881;1263;68484;-38
2024/01/18 02:03:06;;;;;;;26.60;16.70;;;;;;;-3.09;81.54;98075.55;106765;1264;71427;-39
2024/01/18 02:05:34;;;;;;;26.70;17.10;;;;;;;-3.10;81.59;98071.98;106862;1269;59498;-38
2024/01/18 02:08:01;;;;;;;31.30;18.40;;;;;;;-3.10;81.79;98063.89;106821;1264;59489;-38
2024/01/18 02:10:29;;;;;;;25.60;16.10;;;;;;;-3.03;81.82;98044.84;106761;1263;73063;-38
2024/01/18 02:12:56;;;;;;;27.90;17.60;;;;;;;-2.96;81.79;98035.71;106826;1264;67500;-39
2024/01/18 02:15:24;;;;;;;26.70;17.10;;;;;;;-2.99;82.08;98027.83;106775;1267;72463;-38
2024/01/18 02:17:51;;;;;;;28.70;16.30;;;;;;;-3.01;82.13;98022.69;106715;1264;59458;-38
2024/01/18 02:20:19;;;;;;;28.30;15.70;;;;;;;-2.98;82.40;98014.23;106857;1264;59653;-38
2024/01/18 02:22:47;;;;;;;26.50;16.90;;;;;;;-2.89;82.28;98012.05;106993;1260;73523;-39
2024/01/18 02:25:18;;;;;;;28.20;16.50;;;;;;;-2.85;82.58;98007.41;106911;1259;68372;-38
2024/01/18 02:27:46;;;;;;;26.70;16.30;;;;;;;-2.83;82.74;98001.06;107014;1264;71454;-38
2024/01/18 02:30:14;;;;;;;24.90;16.90;;;;;;;-2.81;83.09;97996.45;107019;1261;59597;-38
2024/01/18 02:32:41;;;;;;;26.00;16.50;;;;;;;-2.72;83.15;97980.30;107018;1261;59571;-38
2024/01/18 02:35:09;;;;;;;25.70;16.60;;;;;;;-2.64;83.08;97983.20;107005;1260;74059;-38
2024/01/18 02:37:36;;;;;;;26.70;16.80;;;;;;;-2.64;83.64;97952.13;106911;1259;67990;-38
2024/01/18 02:40:06;;;;;;;27.30;16.70;;;;;;;-2.66;83.72;97963.36;107032;1263;71233;-38
2024/01/18 02:42:33;;;;;;;29.70;15.70;;;;;;;-2.65;83.86;97955.79;106914;1260;59900;-38
2024/01/18 02:45:04;;;;;;;23.40;14.60;;;;;;;-2.54;83.58;97956.61;106881;1261;59496;-38
2024/01/18 02:47:31;;;;;;;22.70;14.80;;;;;;;-2.48;83.64;97962.65;106779;1260;72355;-38
2024/01/18 02:49:59;;;;;;;27.60;16.20;;;;;;;-2.47;83.80;97954.81;106928;1260;68402;-38
2024/01/18 02:52:27;;;;;;;29.20;16.90;;;;;;;-2.46;84.17;97954.04;107096;1264;72687;-38
2024/01/18 02:54:54;;;;;;;24.60;14.60;;;;;;;-2.37;83.83;97954.50;107036;1260;60874;-38
2024/01/18 02:57:22;;;;;;;23.90;15.00;;;;;;;-2.25;83.92;97941.76;106971;1261;60027;-38
2024/01/18 02:59:49;;;;;;;29.70;15.80;;;;;;;-2.20;83.71;97933.23;107018;1259;73037;-38
2024/01/18 03:02:17;;;;;;;26.80;16.10;;;;;;;-2.21;83.82;97924.85;106927;1261;67126;-38
2024/01/18 03:04:44;;;;;;;29.40;16.20;;;;;;;-2.23;83.89;97910.59;107027;1261;70443;-38
2024/01/18 03:07:12;;;;;;;24.90;15.60;;;;;;;-2.23;83.97;97902.10;106994;1260;59851;-39
2024/01/18 03:09:40;;;;;;;28.00;16.70;;;;;;;-2.13;83.86;97899.38;107023;1260;59489;-38
2024/01/18 03:12:07;;;;;;;27.80;16.60;;;;;;;-2.08;83.81;97896.67;107009;1260;73018;-38
2024/01/18 03:14:35;;;;;;;26.50;17.40;;;;;;;-2.07;84.31;97895.34;107035;1265;68390;-38
2024/01/18 03:17:04;;;;;;;26.50;16.00;;;;;;;-2.04;84.81;97892.05;107032;1260;70454;-39
2024/01/18 03:19:32;;;;;;;26.20;15.20;;;;;;;-1.98;84.94;97892.92;107015;1263;59592;-38
2024/01/18 03:21:59;;;;;;;26.80;15.50;;;;;;;-1.87;84.72;97886.23;106980;1260;59642;-38
2024/01/18 03:24:27;;;;;;;29.10;16.90;;;;;;;-1.80;84.78;97879.84;106984;1266;71731;-38
2024/01/18 03:26:55;;;;;;;23.90;15.70;;;;;;;-1.78;84.94;97875.59;107052;1261;68700;-38
2024/01/18 03:29:22;;;;;;;26.40;15.70;;;;;;;-1.78;84.86;97867.87;107013;1260;71550;-38
2024/01/18 03:31:50;;;;;;;24.70;15.00;;;;;;;-1.69;85.21;97866.32;106967;1261;59582;-38
2024/01/18 03:34:17;;;;;;;24.60;15.40;;;;;;;-1.55;85.29;97857.06;106926;1261;59681;-39
2024/01/18 03:36:45;;;;;;;26.90;15.20;;;;;;;-1.47;85.27;97855.71;106885;1262;71770;-39
2024/01/18 03:39:13;;;;;;;28.00;15.60;;;;;;;-1.46;85.57;97849.70;106971;1261;68359;-39
2024/01/18 03:41:40;;;;;;;24.20;16.10;;;;;;;-1.43;85.62;97843.53;107234;1257;72674;-38
2024/01/18 03:44:08;;;;;;;24.90;14.80;;;;;;;-1.37;85.79;97838.45;107221;1257;60924;-39
2024/01/18 03:46:35;;;;;;;24.10;14.60;;;;;;;-1.25;85.57;97834.19;107216;1257;60228;-39
2024/01/18 03:49:03;;;;;;;25.30;15.30;;;;;;;-1.15;85.76;97829.20;107146;1257;73142;-38
2024/01/18 03:51:31;;;;;;;24.50;14.60;;;;;;;-1.11;86.07;97822.98;107218;1257;67428;-39
2024/01/18 03:53:58;;;;;;;24.80;15.50;;;;;;;-1.08;86.26;97818.02;107225;1259;70442;-38
2024/01/18 03:56:26;;;;;;;21.90;14.30;;;;;;;-1.05;86.46;97818.52;107213;1263;60597;-38
2024/01/18 03:58:54;;;;;;;20.00;13.00;;;;;;;-0.93;86.45;97816.31;107233;1257;60187;-39
2024/01/18 04:01:21;;;;;;;21.20;14.20;;;;;;;-0.83;86.41;97811.21;107261;1258;73760;-39
2024/01/18 04:03:49;;;;;;;24.70;15.00;;;;;;;-0.78;86.68;97808.91;107247;1257;67737;-39
2024/01/18 04:06:16;;;;;;;24.40;15.20;;;;;;;-0.75;86.91;97804.38;107209;1262;72420;-38
2024/01/18 04:08:44;;;;;;;22.90;15.00;;;;;;;-0.72;87.06;97803.82;107207;1260;60440;-38
2024/01/18 04:11:11;;;;;;;23.50;14.00;;;;;;;-0.64;87.19;97802.23;107194;1257;59429;-39
2024/01/18 04:13:39;;;;;;;21.10;13.50;;;;;;;-0.53;87.00;97803.41;107031;1264;73847;-39
2024/01/18 04:16:07;;;;;;;23.00;15.10;;;;;;;-0.48;86.99;97800.30;107236;1258;67425;-38
2024/01/18 04:18:35;;;;;;;24.50;15.10;;;;;;;-0.45;87.49;97791.60;107213;1260;71379;-39
2024/01/18 04:21:03;;;;;;;20.90;13.70;;;;;;;-0.41;87.74;97795.36;107172;1259;60431;-38
2024/01/18 04:23:31;;;;;;;21.90;14.60;;;;;;;-0.32;87.77;97792.98;107140;1257;60306;-39
2024/01/18 04:25:58;;;;;;;21.70;14.10;;;;;;;-0.20;87.54;97793.73;107087;1263;73932;-38
2024/01/18 04:28:25;;;;;;;21.40;14.20;;;;;;;-0.12;87.82;97789.20;107077;1257;66873;-39
2024/01/18 04:30:53;;;;;;;26.30;15.00;;;;;;;-0.08;88.01;97777.91;107165;1257;72699;-39
2024/01/18 04:33:21;;;;;;;23.30;15.00;;;;;;;-0.06;88.07;97779.27;107223;1257;60390;-39
2024/01/18 04:35:48;;;;;;;21.90;14.10;;;;;;;0.02;88.51;97783.80;107145;1257;60517;-39
2024/01/18 04:38:16;;;;;;;19.50;13.40;;;;;;;0.14;88.41;97785.15;107110;1257;74344;-39
2024/01/18 04:40:43;;;;;;;20.90;13.40;;;;;;;0.22;88.46;97780.99;107247;1257;67613;-39
2024/01/18 04:43:11;;;;;;;19.90;14.10;;;;;;;0.24;88.96;97766.67;107225;1257;72716;-39
2024/01/18 04:45:38;;;;;;;21.90;13.80;;;;;;;0.21;89.17;97751.55;107235;1259;60431;-39
2024/01/18 04:48:06;;;;;;;18.90;12.70;;;;;;;0.34;89.65;97765.64;107220;1257;60431;-39
2024/01/18 04:50:34;;;;;;;22.00;12.00;;;;;;;0.48;89.68;97761.36;107074;1257;73816;-39
2024/01/18 04:53:01;;;;;;;18.90;11.70;;;;;;;0.59;90.11;97751.80;107240;1262;68374;-39
2024/01/18 04:55:29;;;;;;;20.70;13.50;;;;;;;0.66;90.36;97740.20;106474;1258;1003512;-39
2024/01/18 04:57:56;;;;;;;19.50;12.00;;;;;;;0.70;90.71;97729.67;106448;1257;1003055;-39
2024/01/18 05:00:24;;;;;;;18.10;12.40;;;;;;;0.77;90.90;97719.53;107042;1263;60352;-39
2024/01/18 05:02:51;;;;;;;18.90;12.20;;;;;;;0.89;90.75;97709.30;107201;1257;73781;-39
2024/01/18 05:05:19;;;;;;;20.20;13.10;;;;;;;0.95;91.00;97714.67;107200;1262;67405;-39
2024/01/18 05:07:49;;;;;;;19.70;13.40;;;;;;;0.98;91.53;97722.06;107233;1257;73122;-39
2024/01/18 05:10:17;;;;;;;23.40;13.30;;;;;;;1.00;91.73;97718.62;107182;1260;60201;-39
2024/01/18 05:12:46;;;;;;;22.00;12.00;;;;;;;1.08;91.60;97716.33;107200;1257;60293;-38
2024/01/18 05:15:14;;;;;;;18.40;12.20;;;;;;;1.17;91.57;97715.31;107217;1257;73855;-39
2024/01/18 05:17:43;;;;;;;20.00;13.20;;;;;;;1.22;91.78;97705.02;107204;1257;67082;-38
2024/01/18 05:20:12;;;;;;;18.50;12.50;;;;;;;1.24;92.27;97694.73;106555;1263;1003797;-39
2024/01/18 05:22:40;;;;;;;20.00;12.10;;;;;;;1.29;92.49;97686.16;107217;1257;60312;-39
2024/01/18 05:25:08;;;;;;;15.00;10.90;;;;;;;1.41;92.44;97689.68;107221;1257;59953;-39
2024/01/18 05:27:36;;;;;;;16.50;11.80;;;;;;;1.51;92.18;97690.86;107279;1257;73855;-39
2024/01/18 05:30:05;;;;;;;17.30;11.70;;;;;;;1.54;92.32;97691.03;107208;1257;66246;-39
2024/01/18 05:32:32;;;;;;;17.60;12.20;;;;;;;1.56;92.67;97682.67;107128;1263;72682;-40
2024/01/18 05:35:01;;;;;;;16.50;11.20;;;;;;;1.63;92.73;97673.27;107092;1260;60562;-39
2024/01/18 05:37:29;;;;;;;13.90;10.30;;;;;;;1.73;92.34;97676.95;107127;1262;60277;-40
2024/01/18 05:39:56;;;;;;;16.80;11.20;;;;;;;1.76;92.64;97679.19;107190;1257;73895;-40
2024/01/18 05:42:24;;;;;;;15.20;10.90;;;;;;;1.78;92.76;97678.08;107202;1257;67220;-39
2024/01/18 05:44:51;;;;;;;15.30;10.80;;;;;;;1.80;92.96;97672.48;107234;1257;71729;-38
2024/01/18 05:47:20;;;;;;;13.90;9.80;;;;;;;1.90;92.69;97668.45;107214;1257;59626;-38
2024/01/18 05:49:48;;;;;;;15.60;10.20;;;;;;;1.99;92.57;97671.59;107240;1262;59862;-38
2024/01/18 05:52:16;;;;;;;16.60;11.90;;;;;;;2.01;92.69;97661.25;107205;1257;73800;-38
2024/01/18 05:54:44;;;;;;;22.70;14.90;;;;;;;2.01;92.84;97644.55;107235;1257;67439;-38
2024/01/18 05:57:12;;;;;;;14.10;10.40;;;;;;;2.08;92.98;97639.52;107224;1258;71408;-38
2024/01/18 05:59:39;;;;;;;15.10;10.10;;;;;;;2.17;92.59;97633.62;107211;1257;60369;-39
2024/01/18 06:02:09;;;;;;;20.40;15.60;;;;;;;2.21;92.61;97637.23;107207;1257;60434;-39
2024/01/18 06:04:36;;;;;;;17.40;11.80;;;;;;;2.22;92.58;97639.02;107248;1263;73861;-39
2024/01/18 06:07:04;;;;;;;18.00;11.70;;;;;;;2.23;92.38;97642.30;107251;1257;67407;-38
2024/01/18 06:09:32;;;;;;;13.80;10.20;;;;;;;2.29;92.17;97641.40;107233;1258;71519;-38
2024/01/18 06:11:59;;;;;;;17.10;13.40;;;;;;;2.38;91.92;97639.45;107221;1257;60200;-39
2024/01/18 06:14:27;;;;;;;16.80;12.80;;;;;;;2.39;91.82;97637.88;107117;1257;60290;-39
2024/01/18 06:16:55;;;;;;;16.90;13.10;;;;;;;2.38;91.85;97637.54;107094;1261;73834;-38
2024/01/18 06:19:23;;;;;;;18.50;12.90;;;;;;;2.39;91.61;97633.36;107184;1263;67158;-39
2024/01/18 06:21:50;;;;;;;16.80;13.40;;;;;;;2.45;91.33;97625.86;107205;1262;72348;-39
2024/01/18 06:24:18;;;;;;;17.60;11.90;;;;;;;2.51;91.03;97629.52;107278;1263;60601;-39
2024/01/18 06:26:46;;;;;;;21.00;14.30;;;;;;;2.51;91.12;97620.73;107262;1257;60319;-39
2024/01/18 06:29:16;;;;;;;19.20;11.80;;;;;;;2.50;91.18;97615.14;107238;1257;72539;-40
2024/01/18 06:31:44;;;;;;;24.30;13.70;;;;;;;2.56;90.77;97617.16;107207;1257;68643;-40
2024/01/18 06:34:12;;;;;;;33.40;18.60;;;;;;;2.64;90.45;97625.21;107229;1258;71929;-40
2024/01/18 06:36:40;;;;;;;20.30;13.20;;;;;;;2.65;90.38;97624.39;107223;1263;60489;-40
2024/01/18 06:39:08;;;;;;;78.90;36.00;;;;;;;2.63;90.41;97626.42;107224;1257;60402;-39
2024/01/18 06:41:36;;;;;;;142.90;62.70;;;;;;;2.65;90.25;97626.30;107199;1258;72584;-39
2024/01/18 06:44:05;;;;;;;87.60;44.00;;;;;;;2.73;90.04;97633.98;107266;1262;67572;-39
2024/01/18 06:46:33;;;;;;;39.80;20.80;;;;;;;2.80;89.54;97631.77;107190;1257;72760;-39
2024/01/18 06:49:00;;;;;;;22.90;14.80;;;;;;;2.80;89.19;97629.70;107070;1263;60440;-39
2024/01/18 06:51:28;;;;;;;22.10;15.60;;;;;;;2.77;89.29;97619.45;107132;1263;60444;-39
2024/01/18 06:53:56;;;;;;;18.90;13.50;;;;;;;2.79;89.24;97621.10;107092;1257;73035;-39
2024/01/18 06:56:24;;;;;;;14.40;10.40;;;;;;;2.86;88.62;97624.52;107212;1257;67637;-39
2024/01/18 06:58:51;;;;;;;15.00;11.60;;;;;;;2.86;88.56;97618.65;107126;1262;71831;-39
2024/01/18 07:01:19;;;;;;;17.20;12.30;;;;;;;2.82;88.55;97616.36;107147;1262;59599;-39
2024/01/18 07:03:47;;;;;;;15.10;11.50;;;;;;;2.80;88.82;97607.06;107207;1257;59588;-39
2024/01/18 07:06:15;;;;;;;14.10;10.00;;;;;;;2.86;88.66;97603.59;107183;1257;74022;-39
2024/01/18 07:08:42;;;;;;;13.20;10.60;;;;;;;2.94;88.09;97598.85;107224;1257;67361;-39
2024/01/18 07:11:10;;;;;;;14.50;10.80;;;;;;;2.96;88.12;97597.16;107204;1263;72778;-40
2024/01/18 07:13:37;;;;;;;16.70;11.20;;;;;;;2.95;88.01;97600.86;107204;1263;60568;-39
2024/01/18 07:16:06;;;;;;;15.90;11.90;;;;;;;2.94;87.89;97601.01;107196;1257;59345;-39
2024/01/18 07:18:34;;;;;;;14.60;10.00;;;;;;;2.99;87.75;97598.42;107235;1262;73781;-39
2024/01/18 07:21:01;;;;;;;14.00;10.60;;;;;;;3.06;87.40;97592.90;107203;1257;67136;-39
2024/01/18 07:23:29;;;;;;;15.10;11.40;;;;;;;3.06;87.08;97595.20;107278;1257;72696;-39
2024/01/18 07:25:57;;;;;;;15.30;12.00;;;;;;;3.02;87.14;97593.98;107137;1263;60416;-39
2024/01/18 07:28:24;;;;;;;15.40;11.40;;;;;;;3.01;87.19;97593.27;107070;1257;60153;-39
2024/01/18 07:30:52;;;;;;;15.80;11.00;;;;;;;3.07;86.98;97585.35;107136;1257;73088;-39
2024/01/18 07:33:20;;;;;;;14.00;10.90;;;;;;;3.14;86.62;97576.00;107367;1260;68661;-40
2024/01/18 07:35:48;;;;;;;15.60;11.20;;;;;;;3.14;86.57;97563.61;107421;1254;71433;-40
2024/01/18 07:38:16;;;;;;;15.20;12.30;;;;;;;3.13;86.75;97556.33;107489;1254;59673;-40
2024/01/18 07:40:43;;;;;;;15.20;11.40;;;;;;;3.11;86.62;97546.89;107491;1254;60352;-39
2024/01/18 07:43:11;;;;;;;14.50;10.20;;;;;;;3.16;86.19;97550.95;107485;1254;72758;-39
2024/01/18 07:45:38;;;;;;;13.60;10.20;;;;;;;3.21;85.96;97551.33;107506;1259;67420;-39
2024/01/18 07:48:06;;;;;;;16.30;12.10;;;;;;;3.19;85.95;97550.63;107484;1254;72725;-39
2024/01/18 07:50:34;;;;;;;15.50;12.00;;;;;;;3.15;86.04;97555.30;107538;1259;60325;-39
2024/01/18 07:53:04;;;;;;;12.90;9.20;;;;;;;3.14;86.14;97553.05;107459;1253;59394;-39
2024/01/18 07:55:31;;;;;;;14.90;10.50;;;;;;;3.20;85.88;97546.59;107530;1253;73797;-39
2024/01/18 07:57:59;;;;;;;15.90;11.90;;;;;;;3.27;85.62;97542.44;107506;1253;66771;-39
2024/01/18 08:00:27;;;;;;;14.30;11.30;;;;;;;3.29;85.54;97545.14;107502;1255;72501;-39
2024/01/18 08:02:55;;;;;;;15.80;12.00;;;;;;;3.28;85.50;97541.39;107594;1254;59933;-39
2024/01/18 08:05:24;;;;;;;16.70;11.60;;;;;;;3.27;85.44;97535.16;107485;1253;60425;-39
2024/01/18 08:07:52;;;;;;;15.70;12.10;;;;;;;3.35;85.28;97538.36;107352;1258;76033;-39
2024/01/18 08:10:20;;;;;;;15.30;11.50;;;;;;;3.41;84.69;97538.17;107402;1254;68283;-39
2024/01/18 08:12:49;;;;;;;22.30;15.60;;;;;;;3.41;84.46;97540.16;107465;1253;71381;-39
2024/01/18 08:15:16;;;;;;;17.00;12.90;;;;;;;3.38;84.47;97533.06;107507;1254;60437;-39
2024/01/18 08:17:44;;;;;;;15.30;10.80;;;;;;;3.36;84.57;97527.82;107491;1254;60540;-39
2024/01/18 08:20:14;;;;;;;14.10;9.80;;;;;;;3.40;84.38;97529.58;107499;1258;73960;-39
2024/01/18 08:22:42;;;;;;;14.10;10.70;;;;;;;3.48;84.00;97526.50;107484;1254;68363;-39
2024/01/18 08:25:13;;;;;;;14.40;11.10;;;;;;;3.48;83.95;97513.11;107473;1256;71112;-39
2024/01/18 08:27:42;;;;;;;13.90;11.50;;;;;;;3.44;83.89;97522.76;107490;1253;59232;-39
2024/01/18 08:30:10;;;;;;;14.40;10.50;;;;;;;3.42;83.93;97528.78;107535;1260;60200;-39
2024/01/18 08:32:38;;;;;;;12.10;9.70;;;;;;;3.47;83.65;97528.17;107519;1254;72347;-39
2024/01/18 08:35:07;;;;;;;14.20;10.70;;;;;;;3.53;83.46;97517.86;107534;1254;68821;-40
2024/01/18 08:37:35;;;;;;;13.20;10.80;;;;;;;3.54;83.31;97514.95;107524;1254;72820;-40
2024/01/18 08:40:04;;;;;;;17.90;12.00;;;;;;;3.52;83.51;97511.95;107479;1260;60462;-40
2024/01/18 08:42:31;;;;;;;13.60;11.20;;;;;;;3.52;83.37;97514.63;107571;1254;60521;-40
2024/01/18 08:44:59;;;;;;;16.60;10.90;;;;;;;3.60;83.25;97519.20;107630;1257;73948;-40
2024/01/18 08:47:27;;;;;;;14.60;11.30;;;;;;;3.68;82.84;97517.89;107528;1254;67566;-39
2024/01/18 08:49:54;;;;;;;16.20;12.10;;;;;;;3.71;82.50;97521.44;107506;1254;73029;-39
2024/01/18 08:52:22;;;;;;;16.50;11.80;;;;;;;3.70;82.48;97513.61;107531;1254;60359;-39
2024/01/18 08:54:51;;;;;;;15.10;11.20;;;;;;;3.68;82.35;97524.46;107495;1253;60411;-39
2024/01/18 08:57:19;;;;;;;16.60;11.20;;;;;;;3.72;82.09;97520.08;107383;1254;73953;-39
2024/01/18 08:59:47;;;;;;;13.40;10.50;;;;;;;3.72;81.92;97515.48;107452;1254;68667;-39
2024/01/18 09:02:15;;;;;;;15.50;12.10;;;;;;;3.67;82.12;97506.77;107473;1254;70464;-39
2024/01/18 09:04:52;;;;;;;16.50;11.80;;;;;;;3.61;82.34;97503.67;107551;1254;61029;-39
2024/01/18 09:07:20;;;;;;;15.70;11.20;;;;;;;3.59;82.31;97506.40;107513;1254;60280;-39
2024/01/18 09:09:47;;;;;;;13.50;10.70;;;;;;;3.56;82.12;97492.73;107431;1254;74236;-39
2024/01/18 09:12:15;;;;;;;14.50;11.60;;;;;;;3.61;82.14;97502.61;107463;1254;68447;-39
2024/01/18 09:14:45;;;;;;;17.60;12.70;;;;;;;3.58;82.30;97504.92;107442;1254;72920;-39
2024/01/18 09:17:12;;;;;;;13.20;10.70;;;;;;;3.55;82.45;97508.62;107376;1259;60119;-39
2024/01/18 09:19:41;;;;;;;15.40;11.10;;;;;;;3.58;82.43;97503.02;107440;1254;60320;-39
2024/01/18 09:22:09;;;;;;;16.10;12.30;;;;;;;3.62;82.27;97497.11;107430;1254;73987;-39
2024/01/18 09:24:37;;;;;;;16.30;12.50;;;;;;;3.59;82.30;97500.74;107487;1254;68738;-39
2024/01/18 09:27:04;;;;;;;18.00;13.20;;;;;;;3.56;82.44;97496.48;107452;1254;74825;-39
2024/01/18 09:29:33;;;;;;;17.90;12.10;;;;;;;3.55;82.52;97487.19;107525;1254;60866;-39
2024/01/18 09:32:01;;;;;;;15.30;11.40;;;;;;;3.61;82.47;97489.89;107471;1254;60382;-39
2024/01/18 09:34:28;;;;;;;15.20;11.30;;;;;;;3.65;82.15;97483.20;107458;1254;73810;-39
2024/01/18 09:36:57;;;;;;;15.30;11.90;;;;;;;3.63;82.37;97472.63;107452;1254;68854;-39
2024/01/18 09:39:25;;;;;;;15.50;12.20;;;;;;;3.60;82.53;97466.60;107423;1254;72751;-40
2024/01/18 09:41:54;;;;;;;14.00;11.40;;;;;;;3.60;82.49;97464.62;107432;1257;61155;-39
2024/01/18 09:44:26;;;;;;;14.90;10.90;;;;;;;3.67;82.16;97461.05;107476;1254;60331;-39
2024/01/18 09:46:54;;;;;;;15.70;12.20;;;;;;;3.73;81.90;97455.54;107482;1254;74022;-40
2024/01/18 09:49:22;;;;;;;15.60;12.40;;;;;;;3.71;81.85;97449.25;107494;1254;68506;-40
2024/01/18 09:51:50;;;;;;;16.90;12.40;;;;;;;3.70;81.85;97445.09;107502;1254;72816;-40
2024/01/18 09:54:18;;;;;;;15.50;11.90;;;;;;;3.69;82.04;97440.55;107472;1254;60373;-39
2024/01/18 09:56:46;;;;;;;13.60;11.10;;;;;;;3.75;81.79;97431.15;107492;1254;60533;-39
2024/01/18 09:59:16;;;;;;;17.30;11.30;;;;;;;3.83;81.74;97430.59;107311;1254;73956;-39
2024/01/18 10:01:46;;;;;;;16.60;11.90;;;;;;;3.87;81.40;97429.34;107438;1253;67606;-40
2024/01/18 10:04:18;;;;;;;16.30;12.20;;;;;;;3.89;81.13;97433.12;107370;1254;71471;-40
2024/01/18 10:06:45;;;;;;;14.90;11.50;;;;;;;3.90;81.05;97428.23;107455;1254;60444;-39
2024/01/18 10:09:16;;;;;;;13.50;10.20;;;;;;;4.00;80.71;97423.98;107399;1259;62172;-40
2024/01/18 10:11:45;;;;;;;15.40;10.90;;;;;;;4.07;80.34;97418.04;107360;1254;73980;-39
2024/01/18 10:14:13;;;;;;;16.30;12.00;;;;;;;4.09;80.17;97414.46;107489;1254;68639;-39
2024/01/18 10:16:41;;;;;;;16.50;12.20;;;;;;;4.08;79.97;97419.34;107499;1254;72776;-39
2024/01/18 10:19:14;;;;;;;15.70;11.70;;;;;;;4.05;79.81;97425.05;107522;1254;61160;-39
2024/01/18 10:21:44;;;;;;;14.00;10.80;;;;;;;4.07;79.83;97420.02;107496;1254;60337;-39
2024/01/18 10:24:13;;;;;;;12.50;10.30;;;;;;;4.07;79.75;97417.88;107410;1254;76083;-39
2024/01/18 10:26:40;;;;;;;18.10;12.70;;;;;;;4.04;79.77;97406.05;107435;1254;67649;-39
2024/01/18 10:29:09;;;;;;;16.40;12.30;;;;;;;3.98;79.94;97408.58;107503;1259;71444;-40
2024/01/18 10:31:41;;;;;;;14.30;11.40;;;;;;;3.96;79.94;97405.19;107437;1253;60770;-39
2024/01/18 10:34:09;;;;;;;26.50;16.30;;;;;;;3.97;79.99;97403.19;107421;1254;60473;-39
2024/01/18 10:36:37;;;;;;;95.80;44.40;;;;;;;3.92;80.01;97402.14;107500;1254;73772;-39
2024/01/18 10:39:16;;;;;;;76.30;40.20;;;;;;;3.86;80.31;97402.21;107522;1254;67854;-40
2024/01/18 10:41:45;;;;;;;99.30;51.60;;;;;;;3.81;80.57;97400.46;107560;1254;71444;-40
2024/01/18 10:44:14;;;;;;;36.50;23.80;;;;;;;3.84;80.47;97397.52;107551;1254;60511;-39
2024/01/18 10:46:42;;;;;;;16.20;11.10;;;;;;;3.85;80.48;97395.70;107340;1259;60084;-39
2024/01/18 10:49:10;;;;;;;18.10;13.70;;;;;;;3.81;80.57;97394.33;107459;1253;73971;-40
2024/01/18 10:51:38;;;;;;;15.70;13.10;;;;;;;3.76;80.75;97388.89;107307;1254;66823;-40
2024/01/18 10:54:07;;;;;;;15.60;12.10;;;;;;;3.71;81.00;97388.54;107503;1260;72763;-40
2024/01/18 10:56:48;;;;;;;16.70;11.60;;;;;;;3.75;80.94;97378.86;107407;1254;60978;-40
2024/01/18 10:59:15;;;;;;;16.90;12.60;;;;;;;3.79;80.84;97366.97;107446;1254;60460;-39
2024/01/18 11:01:43;;;;;;;16.70;14.00;;;;;;;3.78;80.82;97360.60;107431;1254;73082;-40
2024/01/18 11:04:11;;;;;;;19.00;13.40;;;;;;;3.77;81.00;97361.73;107318;1253;67640;-37
2024/01/18 11:06:38;;;;;;;17.80;12.50;;;;;;;3.78;81.04;97353.86;107415;1254;70442;-39
2024/01/18 11:09:06;;;;;;;15.80;11.30;;;;;;;3.85;80.57;97353.88;107391;1258;60428;-40
2024/01/18 11:11:34;;;;;;;18.40;13.20;;;;;;;3.91;80.46;97345.69;107464;1254;60498;-40
2024/01/18 11:14:01;;;;;;;16.30;13.40;;;;;;;3.91;80.39;97336.41;107451;1254;73214;-40
2024/01/18 11:16:30;;;;;;;19.10;13.80;;;;;;;3.90;80.36;97333.80;107469;1254;69014;-39
2024/01/18 11:19:02;;;;;;;18.20;12.80;;;;;;;3.88;80.50;97326.27;107453;1254;72788;-40